Tiempo atmosférico en la estación meteorológica de Aliseda, Cáceres (321 m.)



Fecha
DESCASC
Temp. máxima en grados centígrados (hora)
DESCASC
Temp. mínima en grados centígrados (hora)
DESCASC
Temp. media en grados centígrados
DESCASC
Racha de viento máxima en m/sg (hora)
DESCASC
Velocidad máxima media en intervalos de 10 minutos(hora)
DESCASC
Precipitaciones diarias en mm
DESCASC
Precipitaciones de 00:00 a 06:00 en mm
DESCASC
Precipitaciones de 06:00 a 12:00 en mm
DESCASC
Precipitaciones de 12:00 a 18:00 en mm
DESCASC
Precipitaciones de 18:00 a 24:00 en mm
DESCASC
23-05-2018 27.1 (18:10) 12.9 (07:00) 20 6.94 (16:30) 4.17 (22:30) 0 0 0 0 0
22-05-2018 25.5 (18:00) 11.4 (07:30) 18.4 8.33 (12:40) 6.11 (12:50) 0 0 0 0 0
21-05-2018 23.6 (15:50) 10.9 (07:20) 17.3 8.06 (16:00) 4.72 (17:50) 0 0 0 0 0
20-05-2018 22.4 (14:40) 13 (00:00) 17.7 11.94 (17:20) 8.33 (18:00) 38 0 0 38 0
19-05-2018 26.3 (17:10) 10.2 (00:00) 18.2 11.39 (18:40) 6.39 (22:50) 6 0 0 0 6
18-05-2018 24.3 (14:50) 12.4 (00:00) 18.3 11.39 (15:40) 6.94 (00:40) 22.4 0 0.2 22.2 0
17-05-2018 28.9 (17:50) 13.1 (00:00) 21 8.61 (23:59) 5.56 (22:10) 5 0 0 0 5
16-05-2018 27.1 (17:20) 10.2 (00:00) 18.7 7.5 (11:40) 3.89 (09:10) 0 0 0 0 0
15-05-2018 25.5 (18:20) 9 (00:00) 17.3 6.67 (15:20) 3.33 (15:20) 0 0 0 0 0
14-05-2018 23.3 (17:50) 8.3 (00:00) 15.8 8.89 (18:50) 4.44 (10:50) 0 0 0 0 0
13-05-2018 19.9 (18:30) 5.5 (00:00) 12.7 9.17 (17:00) 4.72 (17:00) 0 0 0 0 0
12-05-2018 18.7 (18:20) 10.1 (00:00) 14.4 12.5 (17:20) 6.67 (17:30) 0 0 0 0 0
11-05-2018 23.8 (16:00) 12.3 (07:30) 18 9.44 (16:30) 5 (08:50) 0 0 0 0 0
10-05-2018 24.9 (18:30) 11.3 (00:00) 18.1 6.11 (01:20) 4.44 (03:30) 0 0 0 0 0
09-05-2018 23.1 (16:20) 13 (00:00) 18.1 10.56 (16:20) 6.94 (16:00) 0 0 0 0 0
08-05-2018 26.7 (15:50) 15.6 (00:00) 21.2 7.5 (18:40) 5 (18:40) 0 0 0 0 0
07-05-2018 27.8 (17:10) 11.7 (00:00) 19.7 8.89 (18:10) 3.89 (18:40) 6 0 0 0 6
06-05-2018 25.5 (16:50) 9.8 (00:00) 17.7 7.78 (14:40) 3.89 (17:10) 0 0 0 0 0
05-05-2018 25 (17:40) 9.2 (00:00) 17.1 8.89 (17:30) 3.06 (23:00) 0 0 0 0 0
04-05-2018 20.2 (17:30) 6.8 (00:00) 13.5 8.61 (12:00) 4.44 (12:00) 0 0 0 0 0
03-05-2018 21.4 (15:20) 9.5 (00:00) 15.4 8.61 (15:10) 4.17 (17:30) 0 0 0 0 0
02-05-2018 17.1 (14:30) 7.1 (00:00) 12.1 6.94 (08:40) 5 (08:40) 0 0 0 0 0
01-05-2018 18.2 (18:30) 6.5 (07:40) 12.4 8.06 (22:30) 4.44 (22:30) 0 0 0 0 0
30-04-2018 15.9 (17:40) 5.5 (00:00) 10.7 8.33 (16:30) 4.72 (19:40) 0.4 0 0.2 0.2 0
29-04-2018 14.2 (17:20) 6.8 (00:00) 10.5 15.28 (14:40) 9.17 (17:30) 3.4 3 0 0.4 0
28-04-2018 15.3 (15:50) 6.6 (00:00) 11 9.17 (20:30) 5 (15:40) 1.2 0 0 0 1.2
27-04-2018 22 (16:00) 10.2 (00:00) 16.1 9.44 (19:10) 6.11 (18:40) 0 0 0 0 0
26-04-2018 27.6 (17:00) 13.9 (00:00) 20.8 6.39 (21:50) 3.61 (19:40) 0 0 0 0 0
25-04-2018 28.1 (18:00) 12.3 (00:00) 20.2 5.56 (15:40) 3.33 (23:10) 0 0 0 0 0
24-04-2018 25.6 (18:20) 16.2 (00:00) 20.9 7.5 (06:20) 4.72 (06:50) 0 0 0 0 0

Gráficas

Temp. máximas Temp. mínimas Temp. medias Precipitaciones Rachas de viento máximas Velocidades máximas media en intervalos de 10 minutos

Datos horarios

Fecha y hora oficial Temperatura (ºC) Velocidad del viento (km/h) Dirección del viento Racha (km/h) Dirección de racha Precipitación (mm) Presión (hPa) Tendencia (hPa) Humedad (%)
2018-05-23 23:00:00 21.5 13 Sur 24 Sur 0 -- -- 56
2018-05-23 22:00:00 22.8 11 Sur 24 Sur 0 -- -- 50
2018-05-23 21:00:00 24.9 0 Calma 11 Sudoeste 0 -- -- 46
2018-05-23 20:00:00 25.1 6 Sudoeste 18 Sudoeste 0 -- -- 45
2018-05-23 19:00:00 26.6 3 Oeste 18 Este 0 -- -- 42
2018-05-23 18:00:00 27 4 Sur 21 Este 0 -- -- 36
2018-05-23 17:00:00 25.8 13 Sur 25 Sudoeste 0 -- -- 38
2018-05-23 16:00:00 26.1 6 Sudoeste 20 Este 0 -- -- 42
2018-05-23 15:00:00 25.1 5 Oeste 13 Nordeste 0 -- -- 45
2018-05-23 14:00:00 24.7 4 Nordeste 15 Nordeste 0 -- -- 47
2018-05-23 13:00:00 23.8 5 Nordeste 13 Nordeste 0 -- -- 53
2018-05-23 12:00:00 22.2 5 Este 13 Este 0 -- -- 57
2018-05-23 11:00:00 20.9 4 Nordeste 10 Nordeste 0 -- -- 65
2018-05-23 10:00:00 17.9 2 Norte 5 Nordeste 0 -- -- 83
2018-05-23 09:00:00 14.5 0 Calma 4 Nordeste 0 -- -- 92
2018-05-23 08:00:00 13.2 0 Calma 0 Calma 0 -- -- 92
2018-05-23 07:00:00 12.9 0 Calma 4 Sur 0 -- -- 91
2018-05-23 06:00:00 13.5 2 Sudoeste 5 Sur 0 -- -- 88
2018-05-23 05:00:00 14.1 0 Calma 4 Sur 0 -- -- 85
2018-05-23 04:00:00 14.7 4 Sur 8 Sudoeste 0 -- -- 83
2018-05-23 03:00:00 15.7 6 Sudoeste 9 Sudoeste 0 -- -- 80
2018-05-23 02:00:00 15.9 5 Sudoeste 10 Sudoeste 0 -- -- 78
2018-05-23 01:00:00 16.6 6 Sudoeste 15 Oeste 0 -- -- 72
2018-05-23 00:00:00 19.4 10 Sudoeste 19 Sudoeste 0 -- -- 60
2018-05-22 23:00:00 19.8 14 Sudoeste 18 Sudoeste 0 -- -- 59
2018-05-22 22:00:00 20.7 10 Sudoeste 15 Sudoeste 0 -- -- 60
2018-05-22 21:00:00 23.5 7 Sudoeste 14 Sudoeste 0 -- -- 57
2018-05-22 20:00:00 23.8 8 Sudoeste 19 Sudoeste 0 -- -- 53
2018-05-22 19:00:00 25.1 11 Oeste 19 Oeste 0 -- -- 49
2018-05-22 18:00:00 25.5 8 Sudoeste 18 Sudoeste 0 -- -- 46
2018-05-22 17:00:00 24.6 11 Sur 24 Sudoeste 0 -- -- 51
2018-05-22 16:00:00 23.4 9 Oeste 28 Sudoeste 0 -- -- 58
2018-05-22 15:00:00 22.9 10 Sur 24 Sur 0 -- -- 57
2018-05-22 14:00:00 21.8 10 Sur 24 Sur 0 -- -- 65
2018-05-22 13:00:00 19.2 20 Sur 30 Sur 0 -- -- 75
2018-05-22 12:00:00 20.6 13 Sur 26 Sur 0 -- -- 70
2018-05-22 11:00:00 18.9 4 Noroeste 15 Sudoeste 0 -- -- 76
2018-05-22 10:00:00 17.5 0 Calma 5 Nordeste 0 -- -- 80
2018-05-22 09:00:00 14.2 0 Calma 6 Noroeste 0 -- -- 89
2018-05-22 08:00:00 11.7 0 Calma 4 Este 0 -- -- 93
2018-05-22 07:00:00 11.7 0 Calma 6 Este 0 -- -- 91
2018-05-22 06:00:00 12 3 Sur 5 Sur 0 -- -- 91
2018-05-22 05:00:00 12.4 0 Calma 4 Sur 0 -- -- 89
2018-05-22 04:00:00 13.5 2 Sur 12 Sudoeste 0 -- -- 83
2018-05-22 03:00:00 14.7 4 Sudoeste 15 Sudoeste 0 -- -- 79
2018-05-22 02:00:00 16.6 11 Sudoeste 17 Sudoeste 0 -- -- 67
2018-05-22 01:00:00 17 6 Sudoeste 14 Sur 0 -- -- 60
2018-05-22 00:00:00 18.2 12 Sudoeste 14 Sudoeste 0 -- -- 53
2018-05-21 23:00:00 18.1 11 Sudoeste 15 Sudoeste 0 -- -- 55
2018-05-21 22:00:00 18.1 10 Sudoeste 13 Sudoeste 0 -- -- 50
2018-05-21 21:00:00 21.5 2 Oeste 12 Oeste 0 -- -- 62
2018-05-21 20:00:00 21.2 8 Oeste 16 Oeste 0 -- -- 61
2018-05-21 19:00:00 22.1 12 Oeste 25 Oeste 0 -- -- 52
2018-05-21 18:00:00 22.3 17 Oeste 28 Oeste 0 -- -- 54
2018-05-21 17:00:00 22 13 Oeste 26 Oeste 0 -- -- 58
2018-05-21 16:00:00 23.6 13 Sur 29 Sur 0 -- -- 48
2018-05-21 15:00:00 22.9 7 Sur 21 Sur 0 -- -- 55
2018-05-21 14:00:00 21.7 11 Sur 26 Sur 0 -- -- 56
2018-05-21 13:00:00 20.6 9 Sudoeste 21 Sudoeste 0 -- -- 63
2018-05-21 12:00:00 19.6 8 Sudoeste 15 Sudoeste 0 -- -- 62
2018-05-21 11:00:00 17.9 3 Este 7 Nordeste 0 -- -- 74
2018-05-21 10:00:00 16.3 3 Norte 6 Nordeste 0 -- -- 87
2018-05-21 09:00:00 13 0 Calma 5 Noroeste 0 -- -- 95
2018-05-21 08:00:00 11.3 0 Calma 9 Noroeste 0 -- -- 96
2018-05-21 07:00:00 11.3 0 Calma 5 Sudeste 0 -- -- 93
2018-05-21 06:00:00 11.8 5 Sur 7 Sudeste 0 -- -- 93
2018-05-21 05:00:00 12 0 Calma 2 Sur 0 -- -- 94
2018-05-21 04:00:00 12.3 0 Calma 6 Sudeste 0 -- -- 94
2018-05-21 03:00:00 12.3 4 Sudeste 8 Este 0 -- -- 94
2018-05-21 02:00:00 12.2 0 Calma 8 Oeste 0 -- -- 91
2018-05-21 01:00:00 13.2 0 Calma 14 Sudoeste 0 -- -- 90
2018-05-21 00:00:00 13.6 3 Sudoeste 9 Sudoeste 0 -- -- 89
2018-05-20 23:00:00 13.5 5 Sudeste 8 Oeste 0 -- -- 90
2018-05-20 22:00:00 14.5 3 Oeste 8 Noroeste 0 -- -- 87
2018-05-20 21:00:00 16.2 4 Sur 8 Noroeste 0 -- -- 83
2018-05-20 20:00:00 16.4 7 Sudoeste 13 Nordeste 0 -- -- 73
2018-05-20 19:00:00 16.3 3 Oeste 41 Sudeste 0 -- -- 79
2018-05-20 18:00:00 15.2 30 Sudeste 43 Sudeste 1.2 -- -- 81
2018-05-20 17:00:00 14.1 20 Sudeste 35 Nordeste 36.8 -- -- 96
2018-05-20 16:00:00 22.1 12 Sur 23 Sur 0 -- -- 58
2018-05-20 15:00:00 21.9 8 Oeste 18 Sudoeste 0 -- -- 60
2018-05-20 14:00:00 21.8 3 Norte 12 Noroeste 0 -- -- 62
2018-05-20 13:00:00 21.3 6 Norte 15 Nordeste 0 -- -- 65
2018-05-20 12:00:00 21 5 Sudeste 15 Este 0 -- -- 65
2018-05-20 11:00:00 20.5 4 Norte 8 Norte 0 -- -- 70
2018-05-20 10:00:00 18.8 4 Nordeste 13 Este 0 -- -- 77
2018-05-20 09:00:00 17.3 5 Este 10 Este 0 -- -- 80
2018-05-20 08:00:00 15.4 6 Este 17 Sur 0 -- -- 84
2018-05-20 07:00:00 15.7 4 Oeste 12 Sudoeste 0 -- -- 80
2018-05-20 06:00:00 15.2 8 Sudoeste 10 Sudoeste 0 -- -- 81
2018-05-20 05:00:00 14.2 0 Calma 6 Sur 0 -- -- 87
2018-05-20 04:00:00 14.6 2 Sudoeste 11 Sudoeste 0 -- -- 84
2018-05-20 03:00:00 15.3 5 Sudoeste 10 Sudoeste 0 -- -- 80
2018-05-20 02:00:00 16.8 6 Sudoeste 17 Sudoeste 0 -- -- 77
2018-05-20 01:00:00 17.2 11 Sudoeste 29 Sur 0 -- -- 75
2018-05-20 00:00:00 18.1 19 Sur 28 Sur 0 -- -- 68
2018-05-19 23:00:00 17.5 21 Sur 35 Sur 0 -- -- 72
2018-05-19 22:00:00 16 8 Sudoeste 14 Oeste 0 -- -- 83
2018-05-19 21:00:00 16.7 7 Oeste 17 Oeste 0 -- -- 86
2018-05-19 20:00:00 17.3 7 Sur 25 Este 4.2 -- -- 82
2018-05-19 19:00:00 19.4 15 Este 41 Nordeste 1.8 -- -- 72
2018-05-19 18:00:00 25.2 5 Nordeste 12 Nordeste 0 -- -- 41
2018-05-19 17:00:00 25.9 5 Sur 17 Noroeste 0 -- -- 42
2018-05-19 16:00:00 25.3 3 Noroeste 15 Noroeste 0 -- -- 44
2018-05-19 15:00:00 24.5 6 Sur 14 Nordeste 0 -- -- 44
2018-05-19 14:00:00 23.3 5 Este 12 Este 0 -- -- 52
2018-05-19 13:00:00 21.4 4 Norte 11 Este 0 -- -- 66
2018-05-19 12:00:00 19.6 5 Nordeste 11 Nordeste 0 -- -- 68
2018-05-19 11:00:00 17.4 3 Nordeste 8 Nordeste 0 -- -- 75
2018-05-19 10:00:00 14.8 2 Norte 6 Noroeste 0 -- -- 87
2018-05-19 09:00:00 12.9 3 Noroeste 8 Oeste 0 -- -- 92
2018-05-19 08:00:00 11.2 0 Calma 4 Norte 0 -- -- 96
2018-05-19 07:00:00 10.4 0 Calma 8 Sudeste 0 -- -- 95
2018-05-19 06:00:00 10.3 4 Sur 8 Sudeste 0 -- -- 95
2018-05-19 05:00:00 10.9 0 Calma 6 Sur 0 -- -- 93
2018-05-19 04:00:00 11.7 0 Calma 10 Sur 0 -- -- 93
2018-05-19 03:00:00 11.9 2 Oeste 18 Este 0 -- -- 89
2018-05-19 02:00:00 12.9 10 Este 18 Este 0 -- -- 84
2018-05-19 01:00:00 12.8 5 Sudeste 11 Este 0 -- -- 84
2018-05-19 00:00:00 14.1 6 Este 10 Este 0 -- -- 86
2018-05-18 23:00:00 14.4 3 Este 25 Sudeste 0 -- -- 85
2018-05-18 22:00:00 15.3 20 Sur 30 Sur 0 -- -- 72
2018-05-18 21:00:00 15.6 13 Sudeste 36 Sudeste 0 -- -- 71
2018-05-18 20:00:00 15.2 21 Sudeste 35 Sudeste 0 -- -- 76
2018-05-18 19:00:00 14.3 20 Este 28 Este 0 -- -- 79
2018-05-18 18:00:00 13.5 15 Este 27 Este 2.4 -- -- 88
2018-05-18 17:00:00 13.4 8 Sudeste 23 Este 6.2 -- -- 89
2018-05-18 16:00:00 13.5 10 Noroeste 41 Norte 13.6 -- -- 84
2018-05-18 15:00:00 24.3 12 Sur 29 Sudoeste 0 -- -- 52
2018-05-18 14:00:00 23 8 Sur 33 Sur 0 -- -- 55
2018-05-18 13:00:00 21.6 8 Sudoeste 34 Sudoeste 0 -- -- 58
2018-05-18 12:00:00 20.7 10 Este 25 Sudoeste 0 -- -- 65
2018-05-18 11:00:00 19.4 8 Sudeste 25 Sur 0 -- -- 69
2018-05-18 10:00:00 17.4 12 Sur 22 Sur 0 -- -- 76
2018-05-18 09:00:00 14.4 3 Nordeste 18 Sudeste 0 -- -- 89
2018-05-18 08:00:00 13.4 8 Sudoeste 12 Sudoeste 0.2 -- -- 93
2018-05-18 07:00:00 13 9 Sudoeste 15 Sudoeste 0 -- -- 92
2018-05-18 06:00:00 12.7 5 Sudoeste 11 Sur 0 -- -- 93
2018-05-18 05:00:00 13 4 Sur 7 Sudoeste 0 -- -- 91
2018-05-18 04:00:00 14 5 Sudoeste 11 Sur 0 -- -- 89
2018-05-18 03:00:00 14.9 0 Calma 8 Oeste 0 -- -- 86
2018-05-18 02:00:00 14.6 0 Calma 28 Este 0 -- -- 87
2018-05-18 01:00:00 16.5 22 Este 40 Sudeste 0 -- -- 74
2018-05-18 00:00:00 15.7 17 Este 31 Nordeste 3.6 -- -- 83
2018-05-17 23:00:00 17.9 11 Norte 31 Norte 1.2 -- -- 71
2018-05-17 22:00:00 18.7 15 Sudeste 26 Sudeste 0.2 -- -- 62
2018-05-17 21:00:00 22.3 11 Sudoeste 24 Oeste 0 -- -- 51
2018-05-17 20:00:00 26.7 3 Este 7 Nordeste 0 -- -- 30
2018-05-17 19:00:00 27.4 3 Noroeste 16 Sudoeste 0 -- -- 33
2018-05-17 18:00:00 28.7 10 Sudoeste 16 Oeste 0 -- -- 27
2018-05-17 17:00:00 28.3 3 Noroeste 15 Noroeste 0 -- -- 29
2018-05-17 16:00:00 28.3 6 Sudeste 20 Este 0 -- -- 30
2018-05-17 15:00:00 27.3 7 Norte 19 Norte 0 -- -- 31
2018-05-17 14:00:00 26.6 6 Norte 21 Este 0 -- -- 36
2018-05-17 13:00:00 25.3 8 Este 22 Este 0 -- -- 34
2018-05-17 12:00:00 24.3 9 Nordeste 20 Este 0 -- -- 38
2018-05-17 11:00:00 22.6 8 Nordeste 23 Este 0 -- -- 43
2018-05-17 10:00:00 21.5 17 Este 28 Este 0 -- -- 41
2018-05-17 09:00:00 18.2 7 Este 20 Este 0 -- -- 55
2018-05-17 08:00:00 16.7 10 Este 16 Sudeste 0 -- -- 54
2018-05-17 07:00:00 13.3 3 Este 10 Este 0 -- -- 72
2018-05-17 06:00:00 14.1 2 Sudeste 13 Sudeste 0 -- -- 68
2018-05-17 05:00:00 17.3 7 Este 13 Este 0 -- -- 56
2018-05-17 04:00:00 17.1 4 Este 14 Este 0 -- -- 58
2018-05-17 03:00:00 15.2 0 Calma 6 Sudeste 0 -- -- 66
2018-05-17 02:00:00 15.6 0 Calma 5 Sudeste 0 -- -- 62
2018-05-17 01:00:00 16.9 3 Sur 10 Sudeste 0 -- -- 58
2018-05-17 00:00:00 18.5 2 Este 9 Sudeste 0 -- -- 50
2018-05-16 23:00:00 19 6 Sudeste 10 Sudeste 0 -- -- 51
2018-05-16 22:00:00 20.1 4 Sudeste 7 Sudeste 0 -- -- 49
2018-05-16 21:00:00 25.2 2 Nordeste 14 Este 0 -- -- 36
2018-05-16 20:00:00 26.2 8 Nordeste 19 Nordeste 0 -- -- 33
2018-05-16 19:00:00 26.8 8 Nordeste 23 Nordeste 0 -- -- 30
2018-05-16 18:00:00 26.9 8 Este 22 Nordeste 0 -- -- 31
2018-05-16 17:00:00 26.8 13 Este 26 Nordeste 0 -- -- 31
2018-05-16 16:00:00 26.8 8 Nordeste 23 Norte 0 -- -- 34
2018-05-16 15:00:00 26.2 10 Este 22 Nordeste 0 -- -- 36
2018-05-16 14:00:00 25.4 10 Nordeste 23 Nordeste 0 -- -- 41
2018-05-16 13:00:00 24.3 11 Nordeste 24 Este 0 -- -- 42
2018-05-16 12:00:00 22.9 13 Este 27 Este 0 -- -- 44
2018-05-16 11:00:00 21.4 11 Nordeste 26 Nordeste 0 -- -- 48
2018-05-16 10:00:00 18.5 8 Este 24 Este 0 -- -- 57
2018-05-16 09:00:00 16.4 12 Este 23 Este 0 -- -- 59
2018-05-16 08:00:00 11.4 4 Nordeste 12 Este 0 -- -- 74
2018-05-16 07:00:00 11.4 5 Este 9 Este 0 -- -- 73
2018-05-16 06:00:00 10.5 0 Calma 3 Sudeste 0 -- -- 77
2018-05-16 05:00:00 11.3 2 Sudeste 6 Sur 0 -- -- 73
2018-05-16 04:00:00 11.8 0 Calma 5 Sur 0 -- -- 71
2018-05-16 03:00:00 13.3 3 Oeste 7 Oeste 0 -- -- 65
2018-05-16 02:00:00 14.9 0 Calma 8 Este 0 -- -- 60
2018-05-16 01:00:00 16.2 4 Sudeste 9 Sudeste 0 -- -- 53
2018-05-16 00:00:00 15.2 5 Sudeste 8 Sudeste 0 -- -- 57
2018-05-15 23:00:00 16.1 3 Sur 6 Sur 0 -- -- 53
2018-05-15 22:00:00 17.1 5 Sudeste 7 Sudeste 0 -- -- 50
2018-05-15 21:00:00 23.3 3 Nordeste 14 Nordeste 0 -- -- 35
2018-05-15 20:00:00 24.3 9 Nordeste 18 Nordeste 0 -- -- 30
2018-05-15 19:00:00 25.2 9 Norte 20 Nordeste 0 -- -- 28
2018-05-15 18:00:00 25.1 8 Nordeste 22 Nordeste 0 -- -- 28
2018-05-15 17:00:00 25.1 10 Norte 19 Norte 0 -- -- 28
2018-05-15 16:00:00 24.5 9 Norte 24 Noroeste 0 -- -- 33
2018-05-15 15:00:00 24.1 7 Noroeste 18 Oeste 0 -- -- 35
2018-05-15 14:00:00 22.8 6 Sudeste 20 Este 0 -- -- 33
2018-05-15 13:00:00 22 6 Nordeste 17 Nordeste 0 -- -- 35
2018-05-15 12:00:00 20.6 8 Este 18 Este 0 -- -- 38
2018-05-15 11:00:00 18 5 Nordeste 16 Nordeste 0 -- -- 52
2018-05-15 10:00:00 16.2 7 Nordeste 14 Este 0 -- -- 55
2018-05-15 09:00:00 12.8 3 Noroeste 9 Oeste 0 -- -- 68
2018-05-15 08:00:00 9.6 3 Noroeste 10 Sur 0 -- -- 77
2018-05-15 07:00:00 9 3 Oeste 9 Sur 0 -- -- 77
2018-05-15 06:00:00 10.3 2 Sur 11 Sur 0 -- -- 73
2018-05-15 05:00:00 10.8 5 Sur 14 Sur 0 -- -- 72
2018-05-15 04:00:00 11.5 4 Sudoeste 15 Oeste 0 -- -- 69
2018-05-15 03:00:00 14.6 10 Sudeste 15 Sudeste 0 -- -- 55
2018-05-15 02:00:00 14.1 5 Este 9 Sudeste 0 -- -- 60
2018-05-15 01:00:00 15.2 2 Sudeste 10 Nordeste 0 -- -- 60
2018-05-15 00:00:00 15.6 3 Este 8 Este 0 -- -- 62
2018-05-14 23:00:00 14.5 3 Sudeste 6 Este 0 -- -- 67
2018-05-14 22:00:00 17.7 0 Calma 17 Norte 0 -- -- 56
2018-05-14 21:00:00 20.1 7 Norte 25 Norte 0 -- -- 49
2018-05-14 20:00:00 21.5 12 Norte 27 Noroeste 0 -- -- 45
2018-05-14 19:00:00 21.2 13 Norte 32 Nordeste 0 -- -- 47
2018-05-14 18:00:00 23.3 15 Norte 30 Norte 0 -- -- 40
2018-05-14 17:00:00 22.5 13 Norte 29 Nordeste 0 -- -- 44
2018-05-14 16:00:00 22 13 Norte 29 Norte 0 -- -- 45
2018-05-14 15:00:00 21.3 10 Norte 30 Nordeste 0 -- -- 50
2018-05-14 14:00:00 21.1 12 Norte 28 Norte 0 -- -- 52
2018-05-14 13:00:00 19.5 9 Norte 25 Noroeste 0 -- -- 55
2018-05-14 12:00:00 17.9 11 Norte 27 Noroeste 0 -- -- 56
2018-05-14 11:00:00 16.4 14 Norte 26 Noroeste 0 -- -- 60
2018-05-14 10:00:00 14 9 Noroeste 18 Norte 0 -- -- 66
2018-05-14 09:00:00 12.3 3 Oeste 11 Oeste 0 -- -- 69
2018-05-14 08:00:00 8.9 3 Sur 9 Noroeste 0 -- -- 80
2018-05-14 07:00:00 8.4 6 Oeste 12 Oeste 0 -- -- 82
2018-05-14 06:00:00 8.4 4 Oeste 14 Oeste 0 -- -- 81
2018-05-14 05:00:00 9.2 6 Sudoeste 13 Oeste 0 -- -- 77
2018-05-14 04:00:00 9.8 9 Oeste 14 Oeste 0 -- -- 75
2018-05-14 03:00:00 10.2 8 Oeste 18 Oeste 0 -- -- 74
2018-05-14 02:00:00 10.6 8 Sudoeste 15 Oeste 0 -- -- 72
2018-05-14 01:00:00 11.2 6 Noroeste 19 Oeste 0 -- -- 69
2018-05-11 20:00:00 -- -- -- -- -- -- -- -- --
2018-05-11 19:00:00 -- -- -- -- -- -- -- -- --
2018-05-11 18:00:00 23.7 15 Sudoeste 30 Sur 0 -- -- 50
2018-05-11 17:00:00 23.6 11 Sudoeste 34 Sudoeste 0 -- -- 51
2018-05-11 16:00:00 23.8 14 Sur 28 Sudoeste 0 -- -- 51
2018-05-11 15:00:00 22.9 14 Sudoeste 30 Sudoeste 0 -- -- 52
2018-05-11 14:00:00 22.4 10 Sudoeste 24 Sudoeste 0 -- -- 55
2018-05-11 13:00:00 21.5 11 Sur 22 Sudoeste 0 -- -- 56
2018-05-11 12:00:00 20 11 Sur 18 Sur 0 -- -- 64
2018-05-11 11:00:00 19.4 13 Sur 18 Sudeste 0 -- -- 67
2018-05-11 10:00:00 17.4 3 Norte 9 Noroeste 0 -- -- 76
2018-05-11 09:00:00 15.6 6 Nordeste 30 Sur 0 -- -- 81
2018-05-11 08:00:00 12.5 0 Calma 7 Nordeste 0 -- -- 92
2018-05-11 07:00:00 13.1 4 Este 13 Sudoeste 0 -- -- 88
2018-05-11 06:00:00 14 2 Nordeste 30 Sur 0 -- -- 83
2018-05-11 05:00:00 16 14 Sudoeste 20 Sudoeste 0 -- -- 78
2018-05-11 04:00:00 17.3 11 Sudoeste 25 Sudoeste 0 -- -- 70
2018-05-11 03:00:00 16.8 7 Sudoeste 13 Sudoeste 0 -- -- 73
2018-05-11 02:00:00 17.2 7 Sudoeste 14 Sudoeste 0 -- -- 74
2018-05-11 01:00:00 19.1 10 Sudoeste 15 Sudoeste 0 -- -- 66
2018-05-11 00:00:00 19.4 9 Sudoeste 16 Sudoeste 0 -- -- 66
2018-05-10 23:00:00 19.7 11 Sudoeste 14 Sur 0 -- -- 64
2018-05-10 22:00:00 20.4 12 Sudoeste 14 Sudoeste 0 -- -- 60
2018-05-10 21:00:00 22.6 6 Sudoeste 11 Sudoeste 0 -- -- 59
2018-05-10 20:00:00 24.6 2 Norte 9 Nordeste 0 -- -- 51
2018-05-10 19:00:00 24.4 3 Norte 10 Nordeste 0 -- -- 51
2018-05-10 18:00:00 23.6 6 Nordeste 14 Nordeste 0 -- -- 53
2018-05-10 17:00:00 24.1 5 Norte 17 Nordeste 0 -- -- 53
2018-05-10 16:00:00 23.3 9 Este 17 Este 0 -- -- 54
2018-05-10 15:00:00 22.9 5 Noroeste 18 Nordeste 0 -- -- 57
2018-05-10 14:00:00 21.6 5 Norte 12 Nordeste 0 -- -- 59
2018-05-10 13:00:00 20.4 6 Norte 13 Norte 0 -- -- 57
2018-05-10 12:00:00 19 5 Nordeste 14 Nordeste 0 -- -- 60
2018-05-10 11:00:00 17.6 4 Norte 9 Nordeste 0 -- -- 60
2018-05-10 10:00:00 15.6 3 Noroeste 10 Oeste 0 -- -- 65
2018-05-10 09:00:00 13.4 6 Oeste 14 Oeste 0 -- -- 71
2018-05-10 08:00:00 11.8 10 Sudoeste 15 Oeste 0 -- -- 74
2018-05-10 07:00:00 11.5 9 Sudoeste 17 Oeste 0 -- -- 76
2018-05-10 06:00:00 11.9 10 Sudoeste 18 Oeste 0 -- -- 76
2018-05-10 05:00:00 12.5 11 Sudoeste 22 Oeste 0 -- -- 75
2018-05-10 04:00:00 13.2 13 Sudoeste 22 Sur 0 -- -- 73
2018-05-10 03:00:00 13.1 13 Sudoeste 22 Sudoeste 0 -- -- 75
2018-05-10 02:00:00 13.6 13 Sudoeste 22 Sur 0 -- -- 74
2018-05-10 01:00:00 14.1 11 Sudoeste 18 Sudoeste 0 -- -- 69
2018-05-10 00:00:00 14.5 10 Oeste 18 Oeste 0 -- -- 70
2018-05-09 23:00:00 15.1 11 Sudoeste 21 Oeste 0 -- -- 69
2018-05-09 22:00:00 15.7 12 Oeste 28 Oeste 0 -- -- 71
2018-05-09 21:00:00 17.2 12 Oeste 29 Oeste 0 -- -- 71
2018-05-09 20:00:00 20 11 Oeste 26 Sudoeste 0 -- -- 67
2018-05-09 19:00:00 21.5 16 Sudoeste 29 Sur 0 -- -- 66
2018-05-09 18:00:00 22.7 20 Sur 36 Sudoeste 0 -- -- 63
2018-05-09 17:00:00 22.9 17 Sur 38 Sur 0 -- -- 64
2018-05-09 16:00:00 22.8 25 Sur 35 Sur 0 -- -- 64
2018-05-09 15:00:00 22.4 21 Sur 33 Sur 0 -- -- 65
2018-05-09 14:00:00 21.8 19 Sur 28 Sudoeste 0 -- -- 67
2018-05-09 13:00:00 20 17 Sudoeste 26 Sudoeste 0 -- -- 70
2018-05-09 12:00:00 19.2 10 Sudoeste 23 Sudoeste 0 -- -- 72
2018-05-09 11:00:00 17.5 12 Sudoeste 20 Sur 0 -- -- 74
2018-05-09 10:00:00 15.9 14 Sudoeste 22 Sudoeste 0 -- -- 80
2018-05-09 09:00:00 14.2 11 Sudoeste 22 Sudoeste 0 -- -- 87
2018-05-09 08:00:00 13 0 Calma 6 Este 0 -- -- 92
2018-05-09 07:00:00 13.7 4 Este 10 Sudoeste 0 -- -- 88
2018-05-09 06:00:00 15.3 4 Sur 19 Sudoeste 0 -- -- 83
2018-05-09 05:00:00 15.3 12 Sudoeste 19 Sudoeste 0 -- -- 84
2018-05-09 04:00:00 15.7 14 Sudoeste 22 Sudoeste 0 -- -- 84
2018-05-09 03:00:00 16.5 4 Nordeste 28 Sur 0 -- -- 81
2018-05-09 02:00:00 17.9 12 Sur 18 Sur 0 -- -- 75
2018-05-09 01:00:00 18.1 12 Sudoeste 21 Oeste 0 -- -- 68
2018-05-09 00:00:00 18.8 13 Sudoeste 19 Sudoeste 0 -- -- 68
2018-05-08 23:00:00 19.2 7 Sudoeste 15 Oeste 0 -- -- 72
2018-05-08 22:00:00 20.1 7 Oeste 13 Oeste 0 -- -- 70
2018-05-08 21:00:00 22.5 8 Oeste 17 Oeste 0 -- -- 64
2018-05-08 20:00:00 24.7 12 Oeste 23 Oeste 0 -- -- 56
2018-05-08 19:00:00 25.7 12 Oeste 27 Noroeste 0 -- -- 54
2018-05-08 18:00:00 25.1 10 Oeste 20 Noroeste 0 -- -- 52
2018-05-08 17:00:00 26.7 8 Oeste 21 Sudoeste 0 -- -- 49
2018-05-08 16:00:00 26.5 9 Noroeste 24 Oeste 0 -- -- 54
2018-05-08 15:00:00 25.8 6 Sur 17 Noroeste 0 -- -- 54
2018-05-08 14:00:00 24.8 6 Noroeste 20 Noroeste 0 -- -- 56
2018-05-08 13:00:00 23.9 10 Noroeste 18 Noroeste 0 -- -- 61
2018-05-08 12:00:00 21.8 8 Oeste 18 Oeste 0 -- -- 66
2018-05-08 11:00:00 19.6 6 Sudoeste 16 Sudoeste 0 -- -- 73
2018-05-08 10:00:00 18.1 11 Sudoeste 17 Sudoeste 0 -- -- 77
2018-05-08 09:00:00 16 2 Nordeste 8 Noroeste 0 -- -- 92
2018-05-08 08:00:00 16 3 Sudoeste 12 Sur 0 -- -- 88
2018-05-08 07:00:00 15.8 5 Sudoeste 13 Oeste 0 -- -- 89
2018-05-08 06:00:00 15.9 6 Sudoeste 12 Oeste 0 -- -- 89
2018-05-08 05:00:00 15.6 0 Calma 17 Sudoeste 0 -- -- 89
2018-05-08 04:00:00 15.9 8 Sudoeste 11 Sudoeste 0 -- -- 85
2018-05-08 03:00:00 16.2 6 Sudoeste 10 Oeste 0 -- -- 87
2018-05-08 02:00:00 16.9 0 Calma 9 Oeste 0 -- -- 82
2018-05-08 01:00:00 17.6 6 Oeste 14 Oeste 0 -- -- 78
2018-05-08 00:00:00 18.2 7 Oeste 10 Oeste 0 -- -- 75
2018-05-07 23:00:00 19 6 Oeste 17 Oeste 0 -- -- 75
2018-05-07 22:00:00 19.7 11 Sudoeste 17 Oeste 0 -- -- 67
2018-05-07 21:00:00 20.6 8 Sudoeste 15 Sudoeste 0 -- -- 67
2018-05-07 20:00:00 20.6 10 Sudoeste 18 Sur 0 -- -- 72
2018-05-07 19:00:00 19 5 Sudoeste 32 Norte 6 -- -- 80
2018-05-07 18:00:00 25 9 Sudeste 16 Nordeste 0 -- -- 53
2018-05-07 17:00:00 27.1 5 Nordeste 19 Nordeste 0 -- -- 37
2018-05-07 16:00:00 26.5 6 Nordeste 15 Este 0 -- -- 41
2018-05-07 15:00:00 25.6 7 Nordeste 15 Norte 0 -- -- 46
2018-05-07 14:00:00 24.2 10 Nordeste 17 Nordeste 0 -- -- 52
2018-05-07 13:00:00 23.8 8 Nordeste 18 Nordeste 0 -- -- 52
2018-05-07 12:00:00 22.5 7 Nordeste 15 Nordeste 0 -- -- 62
2018-05-07 11:00:00 19.6 6 Nordeste 13 Nordeste 0 -- -- 71
2018-05-07 10:00:00 16.9 2 Nordeste 4 Norte 0 -- -- 80
2018-05-07 09:00:00 13 3 Norte 6 Noroeste 0 -- -- 93
2018-05-07 08:00:00 11.9 0 Calma 6 Sudeste 0 -- -- 93
2018-05-07 07:00:00 12.2 2 Este 10 Sur 0 -- -- 93
2018-05-07 06:00:00 12.3 4 Oeste 10 Noroeste 0 -- -- 89
2018-05-07 05:00:00 13.3 0 Calma 8 Sur 0 -- -- 87
2018-05-07 04:00:00 13.5 0 Calma 9 Sur -- -- -- 87
2018-05-07 03:00:00 14.1 0 Calma 8 Sur 0 -- -- 84
2018-05-07 02:00:00 14.6 5 Sur 8 Sur 0 -- -- 85
2018-05-07 01:00:00 15.2 0 Calma 5 Sur 0 -- -- 79
2018-05-07 00:00:00 16.4 6 Sur 9 Sur 0 -- -- 74
2018-05-06 23:00:00 18.3 4 Sudoeste 15 Sudeste 0 -- -- 68
2018-05-06 22:00:00 20.5 10 Sudeste 14 Sudeste 0 -- -- 60
2018-05-06 21:00:00 22.6 5 Este 12 Este 0 -- -- 57
2018-05-06 20:00:00 24.2 4 Nordeste 14 Nordeste 0 -- -- 48
2018-05-06 19:00:00 24.5 9 Este 23 Este 0 -- -- 48
2018-05-06 18:00:00 24.5 12 Nordeste 25 Este 0 -- -- 49
2018-05-06 17:00:00 25.4 8 Nordeste 22 Este 0 -- -- 44
2018-05-06 16:00:00 25 8 Nordeste 25 Este 0 -- -- 50
2018-05-06 15:00:00 24.7 10 Nordeste 28 Nordeste 0 -- -- 47
2018-05-06 14:00:00 24 10 Este 27 Este 0 -- -- 50
2018-05-06 13:00:00 23.2 11 Nordeste 25 Este 0 -- -- 55
2018-05-06 12:00:00 22.2 11 Nordeste 23 Este 0 -- -- 60
2018-05-06 11:00:00 20.2 14 Este 24 Este 0 -- -- 61
2018-05-06 10:00:00 16.9 6 Nordeste 12 Nordeste 0 -- -- 72
2018-05-06 09:00:00 13.4 6 Este 13 Este 0 -- -- 83
2018-05-06 08:00:00 10.7 3 Nordeste 13 Este 0 -- -- 87
2018-05-06 07:00:00 12 5 Este 15 Sudeste 0 -- -- 80
2018-05-06 06:00:00 10.3 0 Calma 4 Sudeste 0 -- -- 86
2018-05-06 05:00:00 11.3 0 Calma 4 Sur 0 -- -- 80
2018-05-06 04:00:00 12.9 0 Calma 6 Sur 0 -- -- 76
2018-05-06 03:00:00 13.3 2 Sudoeste 6 Sur 0 -- -- 76
2018-05-06 02:00:00 14.2 0 Calma 4 Noroeste 0 -- -- 73
2018-05-06 01:00:00 15.2 0 Calma 4 Sudoeste 0 -- -- 66
2018-05-06 00:00:00 16.8 0 Calma 12 Sudoeste 0 -- -- 60
2018-05-05 23:00:00 19.3 11 Sudoeste 15 Sur 0 -- -- 50
2018-05-05 22:00:00 16.7 7 Sur 9 Sur 0 -- -- 58
2018-05-05 21:00:00 20.4 3 Sur 9 Norte 0 -- -- 53
2018-05-05 20:00:00 23.8 5 Noroeste 17 Noroeste 0 -- -- 39
2018-05-05 19:00:00 24.4 7 Noroeste 15 Noroeste 0 -- -- 38
2018-05-05 18:00:00 24.6 5 Noroeste 32 Noroeste 0 -- -- 40
2018-05-05 17:00:00 24.6 9 Norte 21 Norte 0 -- -- 38
2018-05-05 16:00:00 24 7 Norte 18 Oeste 0 -- -- 42
2018-05-05 15:00:00 23.7 5 Oeste 15 Oeste 0 -- -- 41
2018-05-05 14:00:00 22.6 5 Oeste 13 Este 0 -- -- 47
2018-05-05 13:00:00 20.9 5 Nordeste 14 Este 0 -- -- 55
2018-05-05 12:00:00 19.2 4 Nordeste 9 Nordeste 0 -- -- 61
2018-05-05 11:00:00 16.7 3 Nordeste 9 Nordeste 0 -- -- 66
2018-05-05 10:00:00 13.6 5 Oeste 11 Oeste 0 -- -- 69
2018-05-05 09:00:00 11.2 8 Oeste 16 Oeste 0 -- -- 77
2018-05-05 08:00:00 9.6 3 Sudoeste 12 Sudoeste 0 -- -- 82
2018-05-05 07:00:00 9.8 6 Sudoeste 10 Oeste 0 -- -- 79
2018-05-05 06:00:00 10.2 6 Sudoeste 11 Sudoeste 0 -- -- 77
2018-05-05 05:00:00 9.5 5 Sudoeste 9 Oeste 0 -- -- 81
2018-05-05 04:00:00 9.7 0 Calma 5 Sur 0 -- -- 81
2018-05-05 03:00:00 10.3 0 Calma 9 Sur 0 -- -- 78
2018-05-05 02:00:00 11.6 4 Sudoeste 10 Sur 0 -- -- 71
2018-05-05 01:00:00 11.5 4 Sudoeste 6 Sudoeste 0 -- -- 70
2018-05-05 00:00:00 12.2 3 Sudoeste 7 Sur 0 -- -- 66
2018-05-04 23:00:00 12.9 5 Sudeste 9 Sur 0 -- -- 63
2018-05-04 22:00:00 14 6 Sudeste 10 Sudeste 0 -- -- 61
2018-05-04 21:00:00 18.6 0 Calma 15 Este 0 -- -- 53
2018-05-04 20:00:00 19.4 8 Nordeste 23 Nordeste 0 -- -- 45
2018-05-04 19:00:00 19.8 6 Nordeste 22 Nordeste 0 -- -- 42
2018-05-04 18:00:00 19.9 9 Nordeste 21 Nordeste 0 -- -- 42
2018-05-04 17:00:00 19.6 9 Nordeste 26 Nordeste 0 -- -- 44
2018-05-04 16:00:00 19 12 Norte 24 Norte 0 -- -- 45
2018-05-04 15:00:00 18.5 10 Nordeste 23 Nordeste 0 -- -- 46
2018-05-04 14:00:00 17.8 10 Nordeste 25 Nordeste 0 -- -- 51
2018-05-04 13:00:00 16.7 12 Nordeste 28 Nordeste 0 -- -- 51
2018-05-04 12:00:00 15 16 Nordeste 31 Nordeste 0 -- -- 54
2018-05-04 11:00:00 13.8 11 Nordeste 23 Nordeste 0 -- -- 57
2018-05-04 10:00:00 11.8 7 Nordeste 13 Nordeste 0 -- -- 62
2018-05-04 09:00:00 10.2 4 Nordeste 19 Este 0 -- -- 64
2018-05-04 08:00:00 7.8 8 Este 14 Este 0 -- -- 69
2018-05-04 07:00:00 8.4 4 Este 14 Nordeste 0 -- -- 65
2018-05-04 06:00:00 8.8 6 Este 12 Este 0 -- -- 65
2018-05-04 05:00:00 7.5 0 Calma 5 Sur 0 -- -- 76
2018-05-04 04:00:00 10.2 0 Calma 12 Sudeste 0 -- -- 65
2018-05-04 03:00:00 11.5 5 Este 17 Este 0 -- -- 57
2018-05-04 02:00:00 12.5 3 Nordeste 16 Este 0 -- -- 55
2018-05-04 01:00:00 13.5 6 Este 12 Este 0 -- -- 50
2018-05-04 00:00:00 13.8 4 Este 22 Nordeste 0 -- -- 50
2018-05-03 23:00:00 14.3 8 Nordeste 20 Nordeste 0 -- -- 50
2018-05-03 22:00:00 15.4 4 Este 21 Nordeste 0 -- -- 53
2018-05-03 21:00:00 18.2 12 Nordeste 21 Nordeste 0 -- -- 49
2018-05-03 20:00:00 20.1 11 Norte 23 Norte 0 -- -- 44
2018-05-03 19:00:00 21 10 Noroeste 28 Norte 0 -- -- 44
2018-05-03 18:00:00 20.9 12 Norte 26 Noroeste 0 -- -- 48
2018-05-03 17:00:00 20.7 12 Noroeste 27 Noroeste 0 -- -- 49
2018-05-03 16:00:00 19.3 9 Norte 31 Noroeste 0 -- -- 52
2018-05-03 15:00:00 20.7 12 Noroeste 29 Noroeste 0 -- -- 52
2018-05-03 14:00:00 20.2 11 Norte 24 Noroeste 0 -- -- 55
2018-05-03 13:00:00 19.4 10 Norte 28 Noroeste 0 -- -- 58
2018-05-03 12:00:00 17.7 12 Noroeste 21 Noroeste 0 -- -- 66
2018-05-03 11:00:00 16 12 Noroeste 20 Noroeste 0 -- -- 71
2018-05-03 10:00:00 13.5 7 Oeste 15 Oeste 0 -- -- 75
2018-05-03 09:00:00 11.5 6 Oeste 12 Oeste 0 -- -- 80
2018-05-03 08:00:00 9.7 5 Sudoeste 17 Sudoeste 0 -- -- 86
2018-05-03 07:00:00 9.7 9 Sudoeste 22 Oeste 0 -- -- 85
2018-05-03 06:00:00 10.3 12 Sudoeste 18 Oeste 0 -- -- 83
2018-05-03 05:00:00 10.2 8 Sudoeste 15 Oeste 0 -- -- 84
2018-05-03 04:00:00 10.5 8 Sudoeste 19 Oeste 0 -- -- 84
2018-05-03 03:00:00 10.5 9 Sudoeste 14 Oeste 0 -- -- 84
2018-05-03 02:00:00 11.1 9 Sudoeste 18 Oeste 0 -- -- 82
2018-05-03 01:00:00 11.7 11 Sudoeste 18 Oeste 0 -- -- 79
2018-05-03 00:00:00 12.2 12 Sudoeste 19 Oeste 0 -- -- 75
2018-05-02 23:00:00 13.1 10 Sudoeste 17 Sudoeste 0 -- -- 67
2018-05-02 22:00:00 13.5 9 Sudoeste 12 Oeste 0 -- -- 66
2018-05-02 21:00:00 15.4 7 Oeste 18 Oeste 0 -- -- 60
2018-05-02 20:00:00 16.6 9 Oeste 22 Oeste 0 -- -- 53
2018-05-02 19:00:00 16.9 10 Oeste 25 Sudoeste 0 -- -- 56
2018-05-02 18:00:00 16.6 15 Oeste 23 Oeste 0 -- -- 55
2018-05-02 17:00:00 16.2 9 Oeste 22 Oeste 0 -- -- 54
2018-05-02 16:00:00 16.4 12 Oeste 24 Oeste 0 -- -- 55
2018-05-02 15:00:00 15.7 10 Oeste 25 Oeste 0 -- -- 52
2018-05-02 14:00:00 16.5 10 Oeste 22 Noroeste 0 -- -- 51
2018-05-02 13:00:00 15.8 12 Noroeste 23 Noroeste 0 -- -- 55
2018-05-02 12:00:00 14.5 12 Noroeste 25 Oeste 0 -- -- 62
2018-05-02 11:00:00 13.3 12 Noroeste 21 Noroeste 0 -- -- 63
2018-05-02 10:00:00 10.2 11 Sur 21 Sudoeste 0 -- -- 71
2018-05-02 09:00:00 8.2 15 Sudoeste 25 Sudoeste 0 -- -- 75
2018-05-02 08:00:00 7.9 13 Sudoeste 19 Sudoeste 0 -- -- 75
2018-05-02 07:00:00 8 13 Sudoeste 24 Sudoeste 0 -- -- 75
2018-05-02 06:00:00 8.1 12 Sudoeste 22 Oeste 0 -- -- 60
2018-05-02 05:00:00 7.7 12 Sudoeste 17 Oeste 0 -- -- 64
2018-05-02 04:00:00 7.3 7 Sudoeste 10 Sudoeste 0 -- -- 67
2018-05-02 03:00:00 8.2 7 Sudoeste 14 Sudoeste 0 -- -- 65
2018-05-02 02:00:00 8.9 9 Sudoeste 18 Oeste 0 -- -- 63
2018-05-02 01:00:00 9.5 12 Sudoeste 19 Oeste 0 -- -- 62
2018-05-02 00:00:00 10.4 11 Oeste 21 Oeste 0 -- -- 62
2018-05-01 23:00:00 11.6 12 Oeste 29 Oeste 0 -- -- 57
2018-05-01 22:00:00 13.5 10 Sudoeste 18 Oeste 0 -- -- 51
2018-05-01 21:00:00 14.7 7 Sudoeste 21 Noroeste 0 -- -- 51
2018-05-01 20:00:00 17 5 Norte 15 Noroeste 0 -- -- 39
2018-05-01 19:00:00 17.6 4 Noroeste 17 Noroeste 0 -- -- 42
2018-05-01 18:00:00 18.1 6 Noroeste 22 Noroeste 0 -- -- 39
2018-05-01 17:00:00 17.5 12 Norte 27 Oeste 0 -- -- 48
2018-05-01 16:00:00 17.9 9 Noroeste 26 Oeste 0 -- -- 45
2018-05-01 15:00:00 17.2 9 Noroeste 21 Noroeste 0 -- -- 50
2018-05-01 14:00:00 16.3 10 Noroeste 28 Noroeste 0 -- -- 54
2018-05-01 13:00:00 15 9 Norte 20 Norte 0 -- -- 50
2018-05-01 12:00:00 14 8 Norte 18 Noroeste 0 -- -- 58
2018-05-01 11:00:00 12.7 8 Norte 17 Noroeste 0 -- -- 64
2018-05-01 10:00:00 10.8 7 Noroeste 14 Noroeste 0 -- -- 83
2018-05-01 09:00:00 8.8 5 Oeste 10 Oeste 0 -- -- 91
2018-05-01 08:00:00 6.8 4 Sudoeste 6 Oeste 0 -- -- 92
2018-05-01 07:00:00 7.8 3 Sudoeste 7 Oeste 0 -- -- 88
2018-05-01 06:00:00 8.4 4 Sudoeste 10 Sudoeste 0 -- -- 88
2018-05-01 05:00:00 8.6 7 Sudoeste 14 Sudoeste 0 -- -- 85
2018-05-01 04:00:00 8.9 7 Sudoeste 16 Sudoeste 0 -- -- 85
2018-05-01 03:00:00 8.7 7 Sudoeste 10 Sudoeste 0 -- -- 85
2018-05-01 02:00:00 8 4 Sudoeste 6 Sur 0 -- -- 87
2018-05-01 01:00:00 9.9 5 Sudoeste 11 Sudoeste 0 -- -- 78
2018-05-01 00:00:00 10.7 8 Sudoeste 13 Oeste 0 -- -- 74
2018-04-30 23:00:00 10.5 8 Sudoeste 15 Oeste 0 -- -- 71
2018-04-30 22:00:00 11.6 10 Oeste 16 Oeste 0 -- -- 68
2018-04-30 21:00:00 12.2 8 Oeste 22 Oeste 0 -- -- 64
2018-04-30 20:00:00 13.7 11 Noroeste 24 Oeste 0 -- -- 56
2018-04-30 19:00:00 14.4 10 Noroeste 20 Oeste 0 -- -- 54
2018-04-30 18:00:00 15.7 8 Noroeste 25 Oeste 0 -- -- 49
2018-04-30 17:00:00 14.7 4 Noroeste 30 Noroeste 0 -- -- 52
2018-04-30 16:00:00 15.1 11 Noroeste 24 Noroeste 0 -- -- 51
2018-04-30 15:00:00 15 13 Noroeste 26 Oeste 0.2 -- -- 51
2018-04-30 14:00:00 13.2 15 Noroeste 29 Noroeste 0 -- -- 57
2018-04-30 13:00:00 13.2 12 Noroeste 22 Noroeste 0 -- -- 54
2018-04-30 12:00:00 12.3 6 Oeste 17 Noroeste 0 -- -- 61
2018-04-30 11:00:00 10.9 3 Sudeste 14 Oeste 0 -- -- 71
2018-04-30 10:00:00 9.8 8 Oeste 15 Sudoeste 0 -- -- 75
2018-04-30 09:00:00 7.9 9 Sudoeste 16 Sur 0 -- -- 84
2018-04-30 08:00:00 6.8 6 Sudoeste 10 Sudoeste 0 -- -- 89
2018-04-30 07:00:00 5.5 3 Oeste 13 Sudoeste 0.2 -- -- 89
2018-04-30 06:00:00 6.4 5 Sudoeste 13 Sudoeste 0 -- -- 83
2018-04-30 05:00:00 6.6 7 Sudoeste 14 Sudoeste 0 -- -- 81
2018-04-30 04:00:00 5.7 3 Sudoeste 16 Sudoeste 0 -- -- 84
2018-04-30 03:00:00 7.4 10 Sudoeste 22 Sudoeste 0 -- -- 76
2018-04-30 02:00:00 7.4 9 Sudoeste 18 Oeste 0 -- -- 77
2018-04-30 01:00:00 7.6 9 Sudoeste 19 Sudoeste 0 -- -- 74
2018-04-30 00:00:00 7.1 8 Sudoeste 16 Oeste 0 -- -- 75
2018-04-29 23:00:00 8.2 10 Sudoeste 17 Oeste 0 -- -- 68
2018-04-29 22:00:00 9 12 Oeste 26 Oeste 0 -- -- 64
2018-04-29 21:00:00 10.8 16 Oeste 36 Oeste 0 -- -- 54
2018-04-29 20:00:00 13 22 Oeste 43 Oeste 0 -- -- 47
2018-04-29 19:00:00 13 22 Oeste 37 Oeste 0 -- -- 54
2018-04-29 18:00:00 12.7 22 Noroeste 51 Oeste 0 -- -- 60
2018-04-29 17:00:00 13.8 30 Oeste 48 Oeste 0.2 -- -- 49
2018-04-29 16:00:00 12.3 23 Sudoeste 43 Sudoeste 0 -- -- 66
2018-04-29 15:00:00 9.5 18 Oeste 55 Oeste 0.2 -- -- 80
2018-04-29 14:00:00 12.7 22 Oeste 40 Oeste 0 -- -- 63
2018-04-29 13:00:00 10 24 Oeste 40 Oeste 0 -- -- 70
2018-04-29 12:00:00 11.7 27 Oeste 42 Oeste 0 -- -- 63
2018-04-29 11:00:00 10.8 20 Oeste 41 Sudoeste 0 -- -- 71
2018-04-29 10:00:00 9.4 22 Oeste 34 Sudoeste 0 -- -- 76
2018-04-29 09:00:00 8.3 22 Sudoeste 32 Sudoeste 0 -- -- 79
2018-04-29 08:00:00 7.1 15 Sudoeste 24 Sudoeste 0 -- -- 85
2018-04-29 07:00:00 7 19 Sudoeste 32 Sudoeste 0 -- -- 85
2018-04-29 06:00:00 7.1 16 Sudoeste 27 Sudoeste 0 -- -- 86
2018-04-29 05:00:00 7 14 Sudoeste 23 Sudoeste 0 -- -- 89
2018-04-29 04:00:00 7.2 13 Sudoeste 27 Sudoeste 0 -- -- 88
2018-04-29 03:00:00 7.7 11 Oeste 25 Oeste 0.6 -- -- 92
2018-04-29 02:00:00 7.8 9 Sudoeste 19 Sudoeste 1.4 -- -- 90
2018-04-29 01:00:00 8 3 Oeste 5 Oeste 1 -- -- 91
2018-04-29 00:00:00 8.2 3 Oeste 20 Noroeste 0.6 -- -- 89
2018-04-28 23:00:00 8.9 8 Noroeste 14 Noroeste 0.2 -- -- 87
2018-04-28 22:00:00 9.4 4 Oeste 13 Oeste 0 -- -- 84
2018-04-28 21:00:00 9.9 6 Oeste 33 Sudoeste 0.4 -- -- 82
2018-04-28 20:00:00 13.9 8 Sur 25 Sur 0 -- -- 56
2018-04-28 19:00:00 14.2 12 Sudoeste 23 Oeste 0 -- -- 52
2018-04-28 18:00:00 14.8 11 Sudoeste 25 Oeste 0 -- -- 49
2018-04-28 17:00:00 14.8 12 Oeste 27 Oeste 0 -- -- 49
2018-04-28 16:00:00 15 18 Oeste 32 Oeste 0 -- -- 50
2018-04-28 15:00:00 14.4 13 Oeste 30 Oeste 0 -- -- 51
2018-04-28 14:00:00 14.1 17 Oeste 29 Oeste 0 -- -- 51
2018-04-28 13:00:00 14.3 9 Oeste 30 Oeste 0 -- -- 56
2018-04-28 12:00:00 13.7 6 Noroeste 22 Noroeste 0 -- -- 60
2018-04-28 11:00:00 11.8 10 Noroeste 28 Oeste 0 -- -- 69
2018-04-28 10:00:00 9.7 13 Oeste 25 Oeste 0 -- -- 72
2018-04-28 09:00:00 8.8 12 Sudoeste 21 Sudoeste 0 -- -- 76
2018-04-28 08:00:00 7.3 14 Sudoeste 24 Sudoeste 0 -- -- 82
2018-04-28 07:00:00 6.9 14 Sudoeste 24 Sudoeste 0 -- -- 85
2018-04-28 06:00:00 6.8 15 Sudoeste 24 Sudoeste 0 -- -- 84
2018-04-28 05:00:00 7.5 12 Sudoeste 19 Sudoeste 0 -- -- 79
2018-04-28 04:00:00 8.1 11 Sudoeste 19 Sudoeste 0 -- -- 76
2018-04-28 03:00:00 8.8 10 Sudoeste 17 Sudoeste 0 -- -- 76
2018-04-28 02:00:00 9.8 11 Sudoeste 23 Sudoeste 0 -- -- 75
2018-04-28 01:00:00 10.8 16 Oeste 24 Oeste 0 -- -- 74
2018-04-28 00:00:00 11.8 10 Oeste 25 Oeste 0 -- -- 73
2018-04-27 23:00:00 13 13 Oeste 24 Oeste 0 -- -- 70
2018-04-27 22:00:00 14.4 13 Oeste 28 Noroeste 0 -- -- 68
2018-04-27 21:00:00 17 13 Oeste 29 Oeste 0 -- -- 63
2018-04-27 20:00:00 19.1 20 Oeste 34 Oeste 0 -- -- 55
2018-04-27 19:00:00 20.5 19 Oeste 33 Oeste 0 -- -- 56
2018-04-27 18:00:00 20.4 19 Oeste 28 Oeste 0 -- -- 53
2018-04-27 17:00:00 21.2 15 Oeste 28 Oeste 0 -- -- 54
2018-04-27 16:00:00 22 9 Oeste 24 Oeste 0 -- -- 51
2018-04-27 15:00:00 21.1 11 Noroeste 23 Oeste 0 -- -- 50
2018-04-27 14:00:00 20.4 14 Oeste 24 Oeste 0 -- -- 47
2018-04-27 13:00:00 19.8 13 Oeste 23 Sudoeste 0 -- -- 48
2018-04-27 12:00:00 18.6 13 Noroeste 21 Oeste 0 -- -- 47
2018-04-27 11:00:00 17 10 Noroeste 19 Oeste 0 -- -- 53
2018-04-27 10:00:00 15 10 Oeste 18 Oeste 0 -- -- 61
2018-04-27 09:00:00 12.8 11 Oeste 18 Oeste 0 -- -- 61
2018-04-27 08:00:00 10.6 5 Oeste 15 Sudoeste 0 -- -- 70
2018-04-27 07:00:00 10.8 9 Sudoeste 17 Oeste 0 -- -- 67
2018-04-27 06:00:00 12.1 11 Sudoeste 23 Oeste 0 -- -- 58
2018-04-27 05:00:00 11.8 6 Oeste 13 Oeste 0 -- -- 63
2018-04-27 04:00:00 13.2 10 Sudoeste 18 Oeste 0 -- -- 61
2018-04-27 03:00:00 13.9 9 Sudoeste 15 Oeste 0 -- -- 62
2018-04-27 02:00:00 14.9 9 Oeste 20 Oeste 0 -- -- 66
2018-04-27 01:00:00 16.5 12 Oeste 18 Oeste 0 -- -- 68
2018-04-27 00:00:00 17.9 5 Oeste 21 Sudoeste 0 -- -- 71
2018-04-26 23:00:00 20 6 Oeste 20 Sudoeste 0 -- -- 71
2018-04-26 22:00:00 22.2 11 Sudoeste 23 Sudoeste 0 -- -- 65
2018-04-26 21:00:00 24 8 Sudoeste 20 Sudoeste 0 -- -- 56
2018-04-26 20:00:00 25.9 10 Sudoeste 22 Sur 0 -- -- 47
2018-04-26 19:00:00 26.6 11 Sudoeste 22 Sudoeste 0 -- -- 45
2018-04-26 18:00:00 27.3 10 Sur 22 Sur 0 -- -- 40
2018-04-26 17:00:00 27.6 8 Sudoeste 21 Sudoeste 0 -- -- 44
2018-04-26 16:00:00 27.3 8 Sur 20 Sudoeste 0 -- -- 39
2018-04-26 15:00:00 26.2 3 Oeste 12 Este 0 -- -- 56
2018-04-26 14:00:00 24.7 5 Nordeste 10 Norte 0 -- -- 58
2018-04-26 13:00:00 23.5 6 Nordeste 12 Nordeste 0 -- -- 64
2018-04-26 12:00:00 22.2 5 Nordeste 9 Nordeste 0 -- -- 66
2018-04-26 11:00:00 20.1 4 Oeste 8 Oeste 0 -- -- 71
2018-04-26 10:00:00 18.3 2 Noroeste 5 Noroeste 0 -- -- 81
2018-04-26 09:00:00 16 0 Calma 5 Sudoeste 0 -- -- 85
2018-04-26 08:00:00 13.9 0 Calma 8 Noroeste 0 -- -- 89
2018-04-26 07:00:00 15.1 2 Noroeste 14 Este 0 -- -- 82
2018-04-26 06:00:00 14.3 3 Sur 7 Sur 0 -- -- 81
2018-04-26 05:00:00 15.3 3 Oeste 8 Sudoeste 0 -- -- 82
2018-04-26 04:00:00 16.1 2 Sudoeste 10 Sur 0 -- -- 79
2018-04-26 03:00:00 16.3 5 Sudoeste 8 Oeste 0 -- -- 79
2018-04-26 02:00:00 19.2 6 Oeste 20 Sudoeste 0 -- -- 69
2018-04-26 01:00:00 19.7 8 Sudoeste 17 Oeste 0 -- -- 73
2018-04-26 00:00:00 20.6 9 Sudoeste 19 Sudoeste 0 -- -- 73
2018-04-25 23:00:00 21.9 12 Oeste 18 Sudoeste 0 -- -- 71
2018-04-25 22:00:00 23.3 11 Oeste 16 Sudoeste 0 -- -- 63
2018-04-25 21:00:00 24.2 7 Oeste 15 Oeste 0 -- -- 61
2018-04-25 20:00:00 27.6 5 Noroeste 15 Oeste 0 -- -- 47
2018-04-25 19:00:00 28.1 9 Oeste 19 Noroeste 0 -- -- 45
2018-04-25 18:00:00 28.1 8 Noroeste 16 Norte 0 -- -- 43
2018-04-25 17:00:00 27.8 8 Noroeste 18 Noroeste 0 -- -- 51
2018-04-25 16:00:00 27.3 10 Noroeste 32 Norte 0 -- -- 49
2018-04-25 15:00:00 26.5 5 Norte 14 Este 0 -- -- 54
2018-04-25 14:00:00 24.6 7 Nordeste 16 Nordeste 0 -- -- 50
2018-04-25 13:00:00 23.5 9 Nordeste 17 Nordeste 0 -- -- 51
2018-04-25 12:00:00 21.6 4 Norte 10 Norte 0 -- -- 63
2018-04-25 11:00:00 19.7 6 Nordeste 13 Este 0 -- -- 62
2018-04-25 10:00:00 18.1 6 Nordeste 14 Este 0 -- -- 64
2018-04-25 09:00:00 14.1 3 Noroeste 7 Oeste 0 -- -- 86
2018-04-25 08:00:00 12.7 2 Este 6 Oeste 0 -- -- 88
2018-04-25 07:00:00 12.9 3 Noroeste 6 Oeste 0 -- -- 86
2018-04-25 06:00:00 13.5 3 Sur 11 Oeste 0 -- -- 82
2018-04-25 05:00:00 13.5 6 Oeste 12 Oeste 0 -- -- 84
2018-04-25 04:00:00 14.9 8 Noroeste 12 Noroeste 0 -- -- 78
2018-04-25 03:00:00 14 4 Sur 7 Sudeste 0 -- -- 80
2018-04-25 02:00:00 14.9 0 Calma 8 Sur 0 -- -- 78
2018-04-25 01:00:00 15.3 0 Calma 6 Sur 0 -- -- 78
2018-04-25 00:00:00 16.2 5 Sudeste 8 Sur 0 -- -- 76
2018-04-24 23:00:00 17.5 5 Sudeste 10 Sudeste 0 -- -- 73
2018-04-24 22:00:00 17.8 4 Sur 9 Sudeste 0 -- -- 73
2018-04-24 21:00:00 20.8 7 Sudeste 10 Sudeste 0 -- -- 65
2018-04-24 20:00:00 24.1 3 Nordeste 15 Nordeste 0 -- -- 57
2018-04-24 19:00:00 25.3 4 Nordeste 16 Este 0 -- -- 45
2018-04-24 18:00:00 25.5 8 Este 18 Este 0 -- -- 44
2018-04-24 17:00:00 25 8 Nordeste 20 Nordeste 0 -- -- 46
2018-04-24 16:00:00 24.4 9 Nordeste 23 Nordeste 0 -- -- 48
2018-04-24 15:00:00 23.5 11 Nordeste 21 Nordeste 0 -- -- 49
2018-04-24 14:00:00 23.3 9 Nordeste 24 Nordeste 0 -- -- 47
2018-04-24 13:00:00 22.1 10 Nordeste 22 Nordeste 0 -- -- 54
2018-04-24 12:00:00 21 9 Nordeste 21 Nordeste 0 -- -- 55
2018-04-24 11:00:00 19.7 9 Este 19 Este 0 -- -- 49
2018-04-24 10:00:00 18.1 9 Este 23 Este 0 -- -- 50
2018-04-24 09:00:00 16.9 13 Este 24 Este 0 -- -- 51
2018-04-24 08:00:00 17.1 14 Este 25 Este 0 -- -- 54
2018-04-24 07:00:00 17.9 14 Este 27 Este 0 -- -- 51
2018-04-24 06:00:00 18.2 14 Este 25 Este 0 -- -- 59
2018-04-24 05:00:00 17.5 5 Este 12 Sudeste 0 -- -- 73
2018-04-24 04:00:00 17.1 5 Este 9 Este 0 -- -- 79
2018-04-24 03:00:00 18 4 Este 8 Este 0 -- -- 78
2018-04-24 02:00:00 17.2 0 Calma 6 Sudeste 0 -- -- 81
2018-04-24 01:00:00 19.4 2 Nordeste 16 Este 0 -- -- 72
2018-04-24 00:00:00 20.4 9 Este 19 Este 0 -- -- 67